createdAt,value
2022-09-20T00:01:12.255Z,4.11
2022-09-20T00:03:13.217Z,4.11
2022-09-20T00:07:15.484Z,4.11
2022-09-20T00:09:16.652Z,4.11
2022-09-20T00:11:17.690Z,4.11
2022-09-20T00:13:18.668Z,4.11
2022-09-20T00:15:20.156Z,4.11
2022-09-20T00:19:22.489Z,4.11
2022-09-20T00:23:25.631Z,4.11
2022-09-20T00:25:27.674Z,4.11
2022-09-20T00:27:28.866Z,4.1
2022-09-20T00:29:30.091Z,4.11
2022-09-20T00:31:31.969Z,4.11
2022-09-20T00:33:33.094Z,4.11
2022-09-20T00:35:34.694Z,4.1
2022-09-20T00:39:37.616Z,4.1
2022-09-20T00:41:38.720Z,4.1
2022-09-20T00:43:39.712Z,4.1
2022-09-20T00:45:40.745Z,4.1
2022-09-20T00:49:43.000Z,4.1
2022-09-20T00:51:44.780Z,4.1
2022-09-20T00:53:46.709Z,4.1
2022-09-20T00:55:48.589Z,4.1
2022-09-20T00:57:50.546Z,4.1
2022-09-20T00:59:51.827Z,4.1
2022-09-20T01:01:52.842Z,4.1
2022-09-20T01:05:55.426Z,4.1
2022-09-20T01:07:56.735Z,4.1
2022-09-20T01:11:59.599Z,4.1
2022-09-20T01:14:01.286Z,4.1
2022-09-20T01:16:02.750Z,4.1
2022-09-20T01:18:03.846Z,4.1
2022-09-20T01:22:06.807Z,4.1
2022-09-20T01:24:08.289Z,4.1
2022-09-20T01:26:09.927Z,4.1
2022-09-20T01:28:11.774Z,4.1
2022-09-20T01:32:15.201Z,4.1
2022-09-20T01:34:16.343Z,4.1
2022-09-20T01:36:17.463Z,4.1
2022-09-20T01:38:19.499Z,4.1
2022-09-20T01:40:20.888Z,4.1
2022-09-20T01:42:22.474Z,4.09
2022-09-20T01:44:24.074Z,4.1
2022-09-20T01:48:27.175Z,4.1
2022-09-20T01:50:28.409Z,4.09
2022-09-20T01:54:31.008Z,4.1
2022-09-20T01:56:32.784Z,4.09
2022-09-20T01:58:34.460Z,4.09
2022-09-20T02:00:36.117Z,4.1
2022-09-20T02:04:39.655Z,4.09
2022-09-20T02:06:41.136Z,4.09
2022-09-20T02:08:42.211Z,4.09
2022-09-20T02:10:44.043Z,4.09
2022-09-20T02:14:46.643Z,4.09
2022-09-20T02:16:48.182Z,4.09
2022-09-20T02:20:50.191Z,4.09
2022-09-20T02:22:51.377Z,4.09
2022-09-20T02:26:53.752Z,4.09
2022-09-20T02:28:55.462Z,4.09
2022-09-20T02:30:56.987Z,4.09
2022-09-20T02:32:58.254Z,4.09
2022-09-20T02:34:59.540Z,4.09
2022-09-20T02:37:01.352Z,4.09
2022-09-20T02:39:02.340Z,4.08
2022-09-20T02:41:03.418Z,4.09
2022-09-20T02:43:05.160Z,4.09
2022-09-20T02:47:08.094Z,4.08
2022-09-20T02:49:10.042Z,4.08
2022-09-20T02:51:11.292Z,4.08
2022-09-20T02:53:12.829Z,4.08
2022-09-20T02:55:13.905Z,4.08
2022-09-20T02:57:15.025Z,4.09
2022-09-20T02:59:16.013Z,4.08
2022-09-20T03:03:18.019Z,4.08
2022-09-20T03:05:19.978Z,4.08
2022-09-20T03:07:21.879Z,4.08
2022-09-20T03:09:23.617Z,4.08
2022-09-20T03:13:26.487Z,4.08
2022-09-20T03:15:28.108Z,4.08
2022-09-20T03:19:31.263Z,4.08
2022-09-20T03:21:32.886Z,4.08
2022-09-20T03:23:33.944Z,4.08
2022-09-20T03:25:35.482Z,4.08
2022-09-20T03:29:38.422Z,4.08
2022-09-20T03:31:39.857Z,4.08
2022-09-20T03:33:40.935Z,4.08
2022-09-20T03:35:42.855Z,4.08
2022-09-20T03:37:43.876Z,4.08
2022-09-20T03:39:45.425Z,4.08
2022-09-20T03:41:47.140Z,4.08
2022-09-20T03:45:49.565Z,4.08
2022-09-20T03:47:51.008Z,4.08
2022-09-20T03:49:52.796Z,4.08
2022-09-20T03:51:54.218Z,4.08
2022-09-20T03:55:57.471Z,4.08
2022-09-20T03:57:59.099Z,4.08
2022-09-20T04:00:01.042Z,4.08
2022-09-20T04:02:55.597Z,4.08
2022-09-20T04:06:58.980Z,4.08
2022-09-20T04:09:00.753Z,4.08
2022-09-20T04:11:02.535Z,4.07
2022-09-20T04:13:03.586Z,4.08
2022-09-20T04:15:05.200Z,4.08
2022-09-20T04:17:07.158Z,4.08
2022-09-20T04:19:08.688Z,4.07
2022-09-20T04:23:11.744Z,4.07
2022-09-20T04:25:12.965Z,4.07
2022-09-20T04:27:14.254Z,4.07
2022-09-20T04:29:15.779Z,4.07
2022-09-20T04:33:18.897Z,4.07
2022-09-20T04:35:20.328Z,4.07
2022-09-20T04:37:22.225Z,4.07
2022-09-20T04:39:24.190Z,4.07
2022-09-20T04:41:26.167Z,4.07
2022-09-20T04:43:27.551Z,4.07
2022-09-20T04:45:29.567Z,4.07
2022-09-20T04:49:32.184Z,4.07
2022-09-20T04:51:33.749Z,4.07
2022-09-20T04:53:34.768Z,4.07
2022-09-20T04:55:35.925Z,4.07
2022-09-20T04:57:37.654Z,4.07
2022-09-20T04:59:39.368Z,4.07
2022-09-20T05:01:40.410Z,4.06
2022-09-20T05:05:42.674Z,4.07
2022-09-20T05:07:44.468Z,4.06
2022-09-20T05:09:46.064Z,4.07
2022-09-20T05:11:48.119Z,4.06
2022-09-20T05:15:51.294Z,4.06
2022-09-20T05:17:52.293Z,4.06
2022-09-20T05:19:53.685Z,4.07
2022-09-20T05:21:55.039Z,4.06
2022-09-20T05:23:56.376Z,4.06
2022-09-20T05:25:58.203Z,4.06
2022-09-20T05:27:59.933Z,4.06
2022-09-20T05:32:03.162Z,4.06
2022-09-20T05:34:04.932Z,4.06
2022-09-20T05:36:06.347Z,4.06
2022-09-20T05:38:07.344Z,4.06
2022-09-20T05:40:08.552Z,4.06
2022-09-20T05:42:09.635Z,4.06
2022-09-20T05:44:10.721Z,4.06
2022-09-20T05:48:13.551Z,4.06
2022-09-20T05:50:14.755Z,4.06
2022-09-20T05:52:16.039Z,4.06
2022-09-20T05:54:17.409Z,4.06
2022-09-20T05:58:20.327Z,4.06
2022-09-20T06:00:21.820Z,4.06
2022-09-20T06:02:23.637Z,4.06
2022-09-20T06:04:24.930Z,4.06
2022-09-20T06:06:29.152Z,4.06
2022-09-20T06:08:27.266Z,4.06
2022-09-20T06:10:28.374Z,4.06
2022-09-20T06:14:31.504Z,4.06
2022-09-20T06:16:33.290Z,4.06
2022-09-20T06:20:36.576Z,4.06
2022-09-20T06:22:37.715Z,4.07
2022-09-20T06:24:39.525Z,4.06
2022-09-20T06:26:41.327Z,4.07
2022-09-20T06:30:44.462Z,4.07
2022-09-20T06:32:45.445Z,4.07
2022-09-20T06:34:47.307Z,4.07
2022-09-20T06:36:48.871Z,4.07
2022-09-20T06:40:51.856Z,4.07
2022-09-20T06:42:53.222Z,4.07
2022-09-20T06:44:54.726Z,4.07
2022-09-20T06:46:55.799Z,4.08
2022-09-20T06:48:57.360Z,4.08
2022-09-20T06:50:59.126Z,4.08
2022-09-20T06:53:00.523Z,4.08
2022-09-20T06:57:03.965Z,4.08
2022-09-20T06:59:06.099Z,4.08
2022-09-20T07:01:06.912Z,4.08
2022-09-20T07:03:08.456Z,4.08
2022-09-20T07:05:09.841Z,4.08
2022-09-20T07:07:11.362Z,4.08
2022-09-20T07:09:12.596Z,4.08
2022-09-20T07:13:15.595Z,4.08
2022-09-20T07:15:16.886Z,4.09
2022-09-20T07:17:18.658Z,4.09
2022-09-20T07:19:20.109Z,4.1
2022-09-20T07:21:21.804Z,4.1
2022-09-20T07:23:22.855Z,4.1
2022-09-20T07:25:24.748Z,4.1
2022-09-20T07:29:27.562Z,4.11
2022-09-20T07:31:29.418Z,4.11
2022-09-20T07:33:30.950Z,4.11
2022-09-20T07:35:32.398Z,4.12
2022-09-20T07:39:35.477Z,4.12
2022-09-20T07:41:36.828Z,4.12
2022-09-20T07:43:37.971Z,4.12
2022-09-20T07:45:39.463Z,4.12
2022-09-20T07:47:40.334Z,4.12
2022-09-20T07:49:41.562Z,4.13
2022-09-20T07:51:43.365Z,4.14
2022-09-20T07:55:45.851Z,4.15
2022-09-20T07:57:47.181Z,4.16
2022-09-20T07:59:48.834Z,4.16
2022-09-20T08:01:50.056Z,4.16
2022-09-20T08:03:51.731Z,4.16
2022-09-20T08:05:52.513Z,4.16
2022-09-20T08:07:53.542Z,4.17
2022-09-20T08:11:56.145Z,4.17
2022-09-20T08:14:06.010Z,4.17
2022-09-20T08:15:58.566Z,4.17
2022-09-20T08:17:59.766Z,4.17
2022-09-20T08:20:01.516Z,4.18
2022-09-20T08:22:02.546Z,4.18
2022-09-20T08:24:04.467Z,4.18
2022-09-20T08:26:07.702Z,4.18
2022-09-20T08:28:07.247Z,4.18
2022-09-20T08:30:08.468Z,4.19
2022-09-20T08:32:09.568Z,4.19
2022-09-20T08:34:11.325Z,4.19
2022-09-20T08:40:15.058Z,4.19
2022-09-20T08:42:16.036Z,4.19
2022-09-20T08:44:17.059Z,4.19
2022-09-20T08:46:23.191Z,4.19
2022-09-20T08:48:20.973Z,4.19
2022-09-20T08:50:22.235Z,4.19
2022-09-20T08:54:25.103Z,4.19
2022-09-20T08:56:25.948Z,4.19
2022-09-20T08:58:27.248Z,4.19
2022-09-20T09:00:28.826Z,4.2
2022-09-20T09:02:29.842Z,4.2
2022-09-20T09:04:32.147Z,4.2
2022-09-20T09:06:33.564Z,4.2
2022-09-20T09:08:37.477Z,4.2
2022-09-20T09:10:42.470Z,4.2
2022-09-20T09:12:37.558Z,4.2
2022-09-20T09:14:38.849Z,4.2
2022-09-20T09:16:40.077Z,4.19
2022-09-20T09:20:43.527Z,4.18
2022-09-20T09:22:45.033Z,4.18
2022-09-20T09:24:46.004Z,4.18
2022-09-20T09:26:47.401Z,4.18
2022-09-20T09:28:48.729Z,4.18
2022-09-20T09:30:50.083Z,4.18
2022-09-20T09:32:50.923Z,4.18
2022-09-20T09:36:53.044Z,4.18
2022-09-20T09:38:54.313Z,4.18
2022-09-20T09:40:55.384Z,4.17
2022-09-20T09:42:57.170Z,4.18
2022-09-20T09:44:58.507Z,4.18
2022-09-20T09:46:59.935Z,4.17
2022-09-20T09:49:01.698Z,4.17
2022-09-20T09:53:04.621Z,4.18
2022-09-20T09:55:07.086Z,4.17
2022-09-20T09:57:08.774Z,4.17
2022-09-20T09:59:10.681Z,4.17
2022-09-20T10:03:13.107Z,4.17
2022-09-20T10:05:13.998Z,4.17
2022-09-20T10:07:15.242Z,4.17
2022-09-20T10:09:16.940Z,4.17
2022-09-20T10:11:18.625Z,4.17
2022-09-20T10:13:20.270Z,4.17
2022-09-20T10:15:21.769Z,4.17
2022-09-20T10:19:24.347Z,4.17
2022-09-20T10:21:25.800Z,4.17
2022-09-20T10:23:45.400Z,4.17
2022-09-20T10:25:27.891Z,4.17
2022-09-20T10:27:28.839Z,4.17
2022-09-20T10:29:30.122Z,4.17
2022-09-20T10:31:31.415Z,4.17
2022-09-20T10:35:33.253Z,4.17
2022-09-20T10:37:34.482Z,4.17
2022-09-20T10:39:35.447Z,4.17
2022-09-20T10:41:37.018Z,4.17
2022-09-20T10:46:03.653Z,4.17
2022-09-20T10:46:31.680Z,4.17
2022-09-20T10:48:24.782Z,4.17
2022-09-20T10:50:25.824Z,4.16
2022-09-20T10:54:28.481Z,4.16
2022-09-20T10:56:29.433Z,4.16
2022-09-20T10:58:30.521Z,4.17
2022-09-20T11:00:32.322Z,4.16
2022-09-20T11:02:34.012Z,4.16
2022-09-20T11:04:35.275Z,4.16
2022-09-20T11:06:37.009Z,4.16
2022-09-20T11:08:37.880Z,4.16
2022-09-20T11:10:39.594Z,4.17
2022-09-20T11:12:41.149Z,4.16
2022-09-20T11:14:42.397Z,4.16
2022-09-20T11:16:43.632Z,4.16
2022-09-20T11:18:46.665Z,4.16
2022-09-20T11:22:47.496Z,4.16
2022-09-20T11:24:49.202Z,4.16
2022-09-20T11:26:50.990Z,4.16
2022-09-20T11:28:52.207Z,4.16
2022-09-20T11:30:52.809Z,4.16
2022-09-20T11:32:54.614Z,4.16
2022-09-20T11:34:55.814Z,4.16
2022-09-20T11:38:58.850Z,4.16
2022-09-20T11:41:00.410Z,4.16
2022-09-20T11:45:03.673Z,4.16
2022-09-20T11:47:05.505Z,4.16
2022-09-20T11:49:06.965Z,4.16
2022-09-20T11:51:08.648Z,4.16
2022-09-20T11:55:10.892Z,4.16
2022-09-20T11:57:12.731Z,4.16
2022-09-20T11:59:14.493Z,4.16
2022-09-20T12:01:16.210Z,4.16
2022-09-20T12:03:17.204Z,4.16
2022-09-20T12:05:18.946Z,4.15
2022-09-20T12:07:20.077Z,4.16
2022-09-20T12:09:21.459Z,4.15
2022-09-20T12:13:24.325Z,4.16
2022-09-20T12:17:26.826Z,4.15
2022-09-20T12:19:28.299Z,4.15
2022-09-20T12:21:29.397Z,4.15
2022-09-20T12:23:30.830Z,4.15
2022-09-20T12:27:33.189Z,4.15
2022-09-20T12:29:34.250Z,4.15
2022-09-20T12:31:35.258Z,4.15
2022-09-20T12:33:36.604Z,4.15
2022-09-20T12:35:38.956Z,4.15
2022-09-20T12:37:40.249Z,4.16
2022-09-20T12:39:41.973Z,4.15
2022-09-20T12:43:44.988Z,4.15
2022-09-20T12:45:46.476Z,4.18
2022-09-20T12:49:49.829Z,4.19
2022-09-20T12:53:52.388Z,4.19
2022-09-20T12:55:53.618Z,4.19
2022-09-20T12:57:55.262Z,4.19
2022-09-20T12:59:56.468Z,4.19
2022-09-20T13:01:57.854Z,4.19
2022-09-20T13:03:59.347Z,4.19
2022-09-20T13:06:00.505Z,4.19
2022-09-20T13:10:03.118Z,4.19
2022-09-20T13:12:04.033Z,4.19
2022-09-20T13:14:05.053Z,4.2
2022-09-20T13:16:06.288Z,4.2
2022-09-20T13:18:08.064Z,4.2
2022-09-20T13:20:09.880Z,4.2
2022-09-20T13:22:11.499Z,4.2
2022-09-20T13:26:13.547Z,4.2
2022-09-20T13:28:17.948Z,4.2
2022-09-20T13:30:15.405Z,4.2
2022-09-20T13:32:16.279Z,4.2
2022-09-20T13:36:18.914Z,4.2
2022-09-20T13:38:20.405Z,4.2
2022-09-20T13:40:21.348Z,4.2
2022-09-20T13:42:22.161Z,4.2
2022-09-20T13:44:23.745Z,4.21
2022-09-20T13:46:25.573Z,4.19
2022-09-20T13:48:26.644Z,4.19
2022-09-20T13:52:29.417Z,4.19
2022-09-20T13:54:30.294Z,4.19
2022-09-20T13:56:31.171Z,4.19
2022-09-20T13:58:32.834Z,4.19
2022-09-20T14:00:34.528Z,4.19
2022-09-20T14:02:35.694Z,4.19
2022-09-20T14:04:37.106Z,4.19
2022-09-20T14:08:39.473Z,4.18
2022-09-20T14:10:41.306Z,4.19
2022-09-20T14:12:42.801Z,4.19
2022-09-20T14:14:43.749Z,4.18
2022-09-20T14:18:45.933Z,4.19
2022-09-20T14:20:47.618Z,4.18
2022-09-20T14:22:49.276Z,4.19
2022-09-20T14:24:50.395Z,4.18
2022-09-20T14:26:51.310Z,4.18
2022-09-20T14:28:52.785Z,4.19
2022-09-20T14:30:54.574Z,4.18
2022-09-20T14:32:55.555Z,4.18
2022-09-20T14:34:56.553Z,4.18
2022-09-20T14:36:57.877Z,4.18
2022-09-20T14:38:58.677Z,4.18
2022-09-20T14:41:00.225Z,4.18
2022-09-20T14:43:01.522Z,4.18
2022-09-20T14:45:02.533Z,4.18
2022-09-20T14:47:03.900Z,4.18
2022-09-20T14:51:06.113Z,4.18
2022-09-20T14:53:07.393Z,4.18
2022-09-20T14:55:08.660Z,4.17
2022-09-20T14:57:09.805Z,4.18
2022-09-20T14:59:11.499Z,4.17
2022-09-20T15:01:13.347Z,4.18
2022-09-20T15:03:14.770Z,4.17
2022-09-20T15:07:16.983Z,4.18
2022-09-20T15:09:17.834Z,4.17
2022-09-20T15:11:19.480Z,4.17
2022-09-20T15:13:20.998Z,4.17
2022-09-20T15:17:23.756Z,4.17
2022-09-20T15:19:25.509Z,4.17
2022-09-20T15:21:26.874Z,4.17
2022-09-20T15:23:27.812Z,4.17
2022-09-20T15:25:29.305Z,4.17
2022-09-20T15:27:30.646Z,4.17
2022-09-20T15:29:32.057Z,4.17
2022-09-20T15:33:34.810Z,4.17
2022-09-20T15:35:36.493Z,4.17
2022-09-20T15:37:38.192Z,4.17
2022-09-20T15:39:40.063Z,4.17
2022-09-20T15:41:41.677Z,4.17
2022-09-20T15:43:43.034Z,4.17
2022-09-20T15:45:44.462Z,4.17
2022-09-20T15:49:46.796Z,4.17
2022-09-20T15:51:48.042Z,4.17
2022-09-20T15:53:49.093Z,4.17
2022-09-20T15:55:51.058Z,4.17
2022-09-20T15:59:53.934Z,4.16
2022-09-20T16:01:54.952Z,4.17
2022-09-20T16:06:00.809Z,4.17
2022-09-20T16:07:59.454Z,4.16
2022-09-20T16:12:02.323Z,4.16
2022-09-20T16:16:05.046Z,4.16
2022-09-20T16:18:05.920Z,4.16
2022-09-20T16:22:09.112Z,4.16
2022-09-20T16:24:10.670Z,4.16
2022-09-20T16:28:13.913Z,4.16
2022-09-20T16:32:16.459Z,4.16
2022-09-20T16:34:17.462Z,4.16
2022-09-20T16:36:18.467Z,4.16
2022-09-20T16:38:19.961Z,4.16
2022-09-20T16:40:21.291Z,4.16
2022-09-20T16:44:24.409Z,4.16
2022-09-20T16:48:27.184Z,4.16
2022-09-20T16:50:28.428Z,4.16
2022-09-20T16:52:29.481Z,4.16
2022-09-20T16:54:32.010Z,4.16
2022-09-20T16:58:32.591Z,4.16
2022-09-20T17:00:33.585Z,4.16
2022-09-20T17:02:35.335Z,4.16
2022-09-20T17:04:36.511Z,4.16
2022-09-20T17:06:37.996Z,4.16
2022-09-20T17:08:39.680Z,4.16
2022-09-20T17:10:41.148Z,4.16
2022-09-20T17:14:43.731Z,4.16
2022-09-20T17:16:44.789Z,4.16
2022-09-20T17:18:46.123Z,4.16
2022-09-20T17:20:47.949Z,4.15
2022-09-20T17:22:49.599Z,4.15
2022-09-20T17:24:50.695Z,4.15
2022-09-20T17:26:51.726Z,4.16
2022-09-20T17:30:54.443Z,4.16
2022-09-20T17:31:38.265Z,4.15
2022-09-20T17:33:39.766Z,4.15
2022-09-20T17:35:40.706Z,4.15
2022-09-20T17:37:42.366Z,4.15
2022-09-20T17:41:44.549Z,4.15
2022-09-20T17:43:45.969Z,4.15
2022-09-20T17:45:46.927Z,4.15
2022-09-20T17:47:48.825Z,4.15
2022-09-20T17:51:51.273Z,4.15
2022-09-20T17:53:52.629Z,4.15
2022-09-20T17:57:55.449Z,4.14
2022-09-20T17:59:57.396Z,4.15
2022-09-20T18:01:59.233Z,4.14
2022-09-20T18:04:00.324Z,4.15
2022-09-20T18:08:02.784Z,4.14
2022-09-20T18:10:04.499Z,4.14
2022-09-20T18:12:06.442Z,4.14
2022-09-20T18:14:07.443Z,4.14
2022-09-20T18:18:09.690Z,4.14
2022-09-20T18:20:10.971Z,4.14
2022-09-20T18:22:12.188Z,4.14
2022-09-20T18:24:14.010Z,4.14
2022-09-20T18:28:16.820Z,4.14
2022-09-20T18:30:17.785Z,4.14
2022-09-20T18:34:20.971Z,4.14
2022-09-20T18:36:22.567Z,4.14
2022-09-20T18:38:23.847Z,4.14
2022-09-20T18:40:25.078Z,4.14
2022-09-20T18:42:26.343Z,4.14
2022-09-20T18:44:28.178Z,4.14
2022-09-20T18:46:29.752Z,4.14
2022-09-20T18:50:33.262Z,4.14
2022-09-20T18:52:34.311Z,4.14
2022-09-20T18:54:35.596Z,4.14
2022-09-20T18:56:37.412Z,4.14
2022-09-20T19:00:40.402Z,4.14
2022-09-20T19:02:41.923Z,4.14
2022-09-20T19:04:43.333Z,4.14
2022-09-20T19:06:44.516Z,4.14
2022-09-20T19:10:47.195Z,4.14
2022-09-20T19:12:48.328Z,4.14
2022-09-20T19:14:50.269Z,4.14
2022-09-20T19:18:53.658Z,4.13
2022-09-20T19:20:55.027Z,4.13
2022-09-20T19:22:56.171Z,4.14
2022-09-20T19:24:58.043Z,4.14
2022-09-20T19:26:58.948Z,4.13
2022-09-20T19:29:00.111Z,4.13
2022-09-20T19:31:01.462Z,4.13
2022-09-20T19:33:02.713Z,4.13
2022-09-20T19:35:04.450Z,4.13
2022-09-20T19:37:05.579Z,4.13
2022-09-20T19:39:06.830Z,4.13
2022-09-20T19:41:07.910Z,4.13
2022-09-20T19:43:08.954Z,4.13
2022-09-20T19:45:09.980Z,4.13
2022-09-20T19:49:12.524Z,4.13
2022-09-20T19:51:13.465Z,4.13
2022-09-20T19:53:15.377Z,4.13
2022-09-20T19:55:17.095Z,4.13
2022-09-20T19:59:19.347Z,4.13
2022-09-20T20:01:20.811Z,4.13
2022-09-20T20:05:23.594Z,4.12
2022-09-20T20:07:25.467Z,4.12
2022-09-20T20:09:26.901Z,4.13
2022-09-20T20:11:27.894Z,4.13
2022-09-20T20:15:30.879Z,4.13
2022-09-20T20:17:32.462Z,4.13
2022-09-20T20:21:34.579Z,4.12
2022-09-20T20:23:36.398Z,4.12
2022-09-20T20:27:39.522Z,4.12
2022-09-20T20:31:42.009Z,4.12
2022-09-20T20:33:43.584Z,4.12
2022-09-20T20:35:45.456Z,4.12
2022-09-20T20:37:47.391Z,4.12
2022-09-20T20:39:48.996Z,4.12
2022-09-20T20:41:50.794Z,4.12
2022-09-20T20:43:52.242Z,4.12
2022-09-20T20:45:53.796Z,4.12
2022-09-20T20:47:55.402Z,4.12
2022-09-20T20:49:56.662Z,4.12
2022-09-20T20:51:57.643Z,4.12
2022-09-20T20:53:58.842Z,4.12
2022-09-20T20:58:01.441Z,4.12
2022-09-20T21:00:03.204Z,4.12
2022-09-20T21:02:07.752Z,4.12
2022-09-20T21:04:06.244Z,4.12
2022-09-20T21:06:07.733Z,4.12
2022-09-20T21:10:10.055Z,4.12
2022-09-20T21:12:11.629Z,4.12
2022-09-20T21:14:13.152Z,4.12
2022-09-20T21:16:13.978Z,4.12
2022-09-20T21:18:15.724Z,4.12
2022-09-20T21:20:17.262Z,4.12
2022-09-20T21:22:18.950Z,4.11
2022-09-20T21:24:20.878Z,4.11
2022-09-20T21:26:22.675Z,4.12
2022-09-20T21:30:25.691Z,4.11
2022-09-20T21:32:26.928Z,4.11
2022-09-20T21:36:30.335Z,4.12
2022-09-20T21:40:33.437Z,4.11
2022-09-20T21:42:34.390Z,4.11
2022-09-20T21:44:35.706Z,4.11
2022-09-20T21:46:37.189Z,4.11
2022-09-20T21:48:38.317Z,4.11
2022-09-20T21:50:39.332Z,4.11
2022-09-20T21:52:40.644Z,4.11
2022-09-20T21:54:42.684Z,4.11
2022-09-20T21:56:44.081Z,4.11
2022-09-20T21:58:45.908Z,4.11
2022-09-20T22:00:47.690Z,4.11
2022-09-20T22:02:49.333Z,4.11
2022-09-20T22:04:51.264Z,4.11
2022-09-20T22:06:53.082Z,4.11
2022-09-20T22:08:54.512Z,4.11
2022-09-20T22:12:57.395Z,4.11
2022-09-20T22:14:59.192Z,4.11
2022-09-20T22:17:00.484Z,4.11
2022-09-20T22:19:02.104Z,4.1
2022-09-20T22:21:03.052Z,4.1
2022-09-20T22:25:06.471Z,4.1
2022-09-20T22:27:07.536Z,4.1
2022-09-20T22:29:09.422Z,4.1
2022-09-20T22:31:11.020Z,4.1
2022-09-20T22:33:12.687Z,4.1
2022-09-20T22:35:14.224Z,4.1
2022-09-20T22:39:17.392Z,4.1
2022-09-20T22:41:18.926Z,4.1
2022-09-20T22:43:20.305Z,4.1
2022-09-20T22:45:22.047Z,4.1
2022-09-20T22:47:23.300Z,4.1
2022-09-20T22:49:24.449Z,4.1
2022-09-20T22:51:25.654Z,4.1
2022-09-20T22:55:28.136Z,4.1
2022-09-20T22:57:29.373Z,4.1
2022-09-20T22:59:30.893Z,4.1
2022-09-20T23:01:32.139Z,4.1
2022-09-20T23:05:35.409Z,4.1
2022-09-20T23:07:37.187Z,4.1
2022-09-20T23:11:40.167Z,4.1
2022-09-20T23:13:41.556Z,4.1
2022-09-20T23:15:42.537Z,4.1
2022-09-20T23:17:44.165Z,4.1
2022-09-20T23:21:46.461Z,4.09
2022-09-20T23:23:48.084Z,4.1
2022-09-20T23:25:49.488Z,4.1
2022-09-20T23:27:51.254Z,4.1
2022-09-20T23:29:52.451Z,4.1
2022-09-20T23:33:56.001Z,4.09
2022-09-20T23:35:57.482Z,4.1
2022-09-20T23:37:58.539Z,4.1
2022-09-20T23:39:59.842Z,4.09
2022-09-20T23:42:01.497Z,4.1
2022-09-20T23:44:03.143Z,4.09
2022-09-20T23:48:06.125Z,4.09
2022-09-20T23:50:07.407Z,4.09
2022-09-20T23:52:09.294Z,4.09
2022-09-20T23:54:11.206Z,4.09
2022-09-20T23:56:12.280Z,4.09
2022-09-20T23:58:14.091Z,4.09
